Carnival Victory — 3FFL8 — position and weather

sailwx.info

Track history (hours):
 
Tides and Currents Weather Stations Pressure Air Temp Water Temp Dewpoint Dewpoint Depression Visibility Wind Speed Wind Dir Waves Ship Positions

Carnival Victory

Operator: Carnival Cruise Lines

Last reported at 2018-Aug-14 06:00 UTC. Time now 2018-Aug-14 13:47 UTC.
Position N 24°18' W 080°48'.

Type: Passenger vessel. MMSI: 355263000.

Wind from 100 at 15 knots

Barometer 1017.2 mb
Air temperature 28.0 ° C
Visibility: greater than 10.8 NM
Dewpoint 22.4 ° C
Water temperature 30.0 ° C

Date/timePositionNaut miles runAvg speedWind from/ knotsBaromVisibWave heightAir tempDewpointWater temp
2018-Aug-14 06:00N 24°18' W 080°48'3213.3 100 / 151017.210.8 28.022.430.0
2018-Aug-14 03:36N 24°37' W 080°20'4713.6
2018-Aug-14 00:09N 25°14' W 079°49'314.2
2018-Aug-13 23:56N 25°17' W 079°48'614.0
2018-Aug-13 23:30N 25°23' W 079°47'612.5
2018-Aug-13 23:00N 25°29' W 079°46'5 9.5
2018-Aug-13 22:30N 25°34' W 079°46'5 9.6
2018-Aug-13 22:00N 25°38' W 079°49'510.7
2018-Aug-13 21:30N 25°41' W 079°54'510.9
2018-Aug-13 21:00N 25°44' W 079°59'510.7
2018-Aug-13 20:30N 25°47' W 080°04'5 9.8
2018-Aug-13 20:00N 25°46' W 080°10'0 0.3
2018-Aug-13 19:28N 25°46' W 080°10'0 0.0
2018-Aug-13 18:58N 25°46' W 080°10'0 0.0
2018-Aug-13 18:28N 25°46' W 080°10'0 0.0
2018-Aug-13 17:58N 25°46' W 080°10'0 0.0
2018-Aug-13 17:28N 25°46' W 080°10'0 0.0
2018-Aug-13 16:58N 25°46' W 080°10'0 0.0
2018-Aug-13 16:28N 25°46' W 080°10'0 0.0
2018-Aug-13 15:58N 25°46' W 080°10'0 0.0
2018-Aug-13 15:28N 25°46' W 080°10'0 0.0
2018-Aug-13 14:58N 25°46' W 080°10'0 0.0
2018-Aug-13 14:28N 25°46' W 080°10'0 0.0
2018-Aug-13 13:58N 25°46' W 080°10'0 0.0
2018-Aug-13 13:28N 25°46' W 080°10'0 0.0
2018-Aug-13 12:58N 25°46' W 080°10'0 0.0
2018-Aug-13 12:28N 25°46' W 080°10'0 0.0
2018-Aug-13 11:58N 25°46' W 080°10'0 0.0
2018-Aug-13 11:28N 25°46' W 080°10'0 0.0
2018-Aug-13 10:58N 25°46' W 080°10'0 0.0
2018-Aug-13 10:28N 25°46' W 080°10'0 0.0
2018-Aug-13 10:00N 25°46' W 080°10'1 2.4
2018-Aug-13 09:31N 25°47' W 080°11'3 6.5
2018-Aug-13 09:00N 25°46' W 080°08'611.5
2018-Aug-13 08:30N 25°47' W 080°01'612.0
2018-Aug-13 08:00N 25°49' W 079°55'510.5
2018-Aug-13 07:30N 25°53' W 079°51'510.3
2018-Aug-13 07:00N 25°57' W 079°47'4 7.8
2018-Aug-13 06:30N 25°58' W 079°43'4 8.9
2018-Aug-13 06:00N 26°00' W 079°39'5 9.8
2018-Aug-13 05:30N 26°03' W 079°34'4 8.6
2018-Aug-13 05:00N 26°05' W 079°30'5 9.5
2018-Aug-13 04:30N 26°08' W 079°26'5 9.9
2018-Aug-13 04:00N 26°11' W 079°21'510.4
2018-Aug-13 03:30N 26°13' W 079°16'8110.8
2018-Aug-12 20:00N 25°54' W 077°48'25 0.6 170 / 81019.5 5.4 30.023.130.0
2018-Aug-11 06:00N 26°06' W 078°12'4714.3 180 / 121016.910.8 28.022.430.0
2018-Aug-11 02:41N 26°18' W 079°03'313.1
2018-Aug-11 02:27N 26°18' W 079°07'613.3
2018-Aug-11 01:59N 26°15' W 079°13'613.7
2018-Aug-11 01:30N 26°11' W 079°18'713.8
2018-Aug-11 01:00N 26°07' W 079°24'613.0
2018-Aug-11 00:30N 26°03' W 079°30'612.5
2018-Aug-11 00:00N 25°60' W 079°36'612.6
2018-Aug-10 23:30N 25°57' W 079°42'713.1
2018-Aug-10 23:00N 25°54' W 079°49'714.3
2018-Aug-10 22:30N 25°51' W 079°56'714.7
2018-Aug-10 22:00N 25°47' W 080°03'510.4
2018-Aug-10 21:30N 25°46' W 080°09'2 4.5
2018-Aug-10 21:00N 25°47' W 080°11'1 1.3
2018-Aug-10 20:29N 25°47' W 080°10'0 0.0
2018-Aug-10 19:59N 25°47' W 080°10'0 0.0
2018-Aug-10 19:29N 25°47' W 080°10'0 0.0
2018-Aug-10 18:59N 25°47' W 080°10'0 0.0
2018-Aug-10 18:29N 25°47' W 080°10'0 0.0
2018-Aug-10 17:59N 25°47' W 080°10'0 0.0
2018-Aug-10 17:29N 25°47' W 080°10'0 0.0
2018-Aug-10 16:59N 25°47' W 080°10'0 0.0
2018-Aug-10 16:29N 25°47' W 080°10'0 0.0
2018-Aug-10 15:59N 25°47' W 080°10'0 0.0
2018-Aug-10 15:29N 25°47' W 080°10'0 0.0
2018-Aug-10 14:59N 25°47' W 080°10'0 0.0
2018-Aug-10 14:29N 25°47' W 080°10'0 0.0
2018-Aug-10 13:59N 25°47' W 080°10'0 0.0
2018-Aug-10 13:29N 25°47' W 080°10'0 0.0
2018-Aug-10 12:59N 25°47' W 080°10'0 0.0
2018-Aug-10 12:26N 25°47' W 080°10'0 0.0
2018-Aug-10 11:59N 25°47' W 080°10'0 0.0
2018-Aug-10 11:23N 25°47' W 080°10'0 0.0
2018-Aug-10 10:59N 25°47' W 080°10'0 0.1
2018-Aug-10 10:30N 25°47' W 080°10'4 8.0
2018-Aug-10 10:00N 25°46' W 080°06'510.8
2018-Aug-10 09:30N 25°46' W 079°60'815.8
2018-Aug-10 09:00N 25°40' W 079°55'816.5
2018-Aug-10 08:30N 25°31' W 079°55'816.6
2018-Aug-10 08:00N 25°23' W 079°55'42916.5
2018-Aug-09 06:00N 21°18' W 086°18'4617.3 060 / 181016.6 5.4 28.025.330.0
2018-Aug-09 03:22N 20°44' W 086°50'719.2
2018-Aug-09 03:00N 20°38' W 086°55'816.9
2018-Aug-09 02:30N 20°31' W 086°60'3 4.8
2018-Aug-09 01:57N 20°29' W 086°59'0 0.0
2018-Aug-09 01:27N 20°29' W 086°59'0 0.0
2018-Aug-09 01:00N 20°29' W 086°59'0 0.0
2018-Aug-09 00:30N 20°29' W 086°59'0 0.0
2018-Aug-09 00:00N 20°29' W 086°59'0 0.0
2018-Aug-08 23:30N 20°29' W 086°59'0 0.0
2018-Aug-08 22:57N 20°29' W 086°59'0 0.0
2018-Aug-08 22:30N 20°29' W 086°59'0 0.0
2018-Aug-08 21:57N 20°29' W 086°59'0 0.0
2018-Aug-08 21:30N 20°29' W 086°59'0 0.0
2018-Aug-08 21:00N 20°29' W 086°59'0 0.0
2018-Aug-08 20:30N 20°29' W 086°59'0 0.0
2018-Aug-08 20:00N 20°29' W 086°59'0 0.0
2018-Aug-08 19:30N 20°29' W 086°59'0 0.0
2018-Aug-08 19:00N 20°29' W 086°59'0 0.0
2018-Aug-08 18:30N 20°29' W 086°59'0 0.0
2018-Aug-08 17:57N 20°29' W 086°59'0 0.0
2018-Aug-08 17:30N 20°29' W 086°59'0 0.0
2018-Aug-08 17:00N 20°29' W 086°59'0 0.0
2018-Aug-08 16:30N 20°29' W 086°59'0 0.0
2018-Aug-08 16:00N 20°29' W 086°59'0 0.0
2018-Aug-08 15:29N 20°29' W 086°59'3 5.3
2018-Aug-08 15:00N 20°31' W 086°60'510.0
2018-Aug-08 14:30N 20°36' W 086°58'15017.7
2018-Aug-08 06:00N 22°18' W 085°00'20919.0 120 / 221015.9 5.4 28.022.430.0
2018-Aug-07 19:00N 24°18' W 081°54'55 4.2 110 / 211016.910.8 30.024.627.0
2018-Aug-07 06:00N 24°18' W 080°54'3512.7 130 / 251016.210.8 28.022.430.0
2018-Aug-07 03:16N 24°36' W 080°22'513.9
2018-Aug-07 02:56N 24°39' W 080°18'4313.2
2018-Aug-06 23:41N 25°14' W 079°49'213.4
2018-Aug-06 23:30N 25°16' W 079°48'713.3
2018-Aug-06 23:00N 25°22' W 079°47'713.3
2018-Aug-06 22:30N 25°29' W 079°46'713.1
2018-Aug-06 22:00N 25°36' W 079°46'713.9
2018-Aug-06 21:31N 25°40' W 079°52'714.1
2018-Aug-06 21:01N 25°44' W 079°59'612.1
2018-Aug-06 20:30N 25°46' W 080°05'5 9.1
2018-Aug-06 20:00N 25°47' W 080°10'0 0.4
2018-Aug-06 19:30N 25°47' W 080°10'0 0.0
2018-Aug-06 19:00N 25°47' W 080°10'0 0.0
2018-Aug-06 18:30N 25°47' W 080°10'0 0.0
2018-Aug-06 18:00N 25°47' W 080°10'0 0.0
2018-Aug-06 17:30N 25°47' W 080°10'0 0.0
2018-Aug-06 17:00N 25°47' W 080°10'0 0.0
2018-Aug-06 16:30N 25°47' W 080°10'0 0.0
2018-Aug-06 16:00N 25°47' W 080°10'0 0.0
2018-Aug-06 15:30N 25°47' W 080°10'0 0.0
2018-Aug-06 15:00N 25°47' W 080°10'0 0.0
2018-Aug-06 14:30N 25°47' W 080°10'0 0.0
2018-Aug-06 14:00N 25°47' W 080°10'0 0.0
2018-Aug-06 13:30N 25°47' W 080°10'0 0.0
2018-Aug-06 13:00N 25°47' W 080°10'0 0.0
2018-Aug-06 12:30N 25°47' W 080°10'0 0.0
2018-Aug-06 12:00N 25°47' W 080°10'0 0.0
2018-Aug-06 11:30N 25°47' W 080°10'0 0.0
2018-Aug-06 11:00N 25°47' W 080°10'1 1.7
2018-Aug-06 10:30N 25°47' W 080°11'3 6.2
2018-Aug-06 10:00N 25°46' W 080°08'510.8
2018-Aug-06 09:30N 25°47' W 080°02'4 8.3
2018-Aug-06 09:00N 25°49' W 079°58'5 9.9
2018-Aug-06 08:30N 25°52' W 079°53'5 9.4
2018-Aug-06 08:00N 25°54' W 079°49'5 9.2
2018-Aug-06 07:30N 25°57' W 079°45'4 8.1
2018-Aug-06 07:00N 25°59' W 079°41'4 7.2
2018-Aug-06 06:30N 26°01' W 079°38'4 8.1
2018-Aug-06 06:00N 26°04' W 079°35'6467.9
2018-Aug-06 06:00N 26°00' W 079°30'714.5 060 / 161018.9 5.4 28.022.430.0
2018-Aug-06 05:30N 26°07' W 079°31'4 8.2
2018-Aug-06 05:00N 26°09' W 079°27'4 8.7
2018-Aug-06 04:30N 26°11' W 079°23'4 8.6
2018-Aug-06 04:00N 26°12' W 079°18'4 8.9
2018-Aug-06 03:30N 26°14' W 079°14'5 8.6
2018-Aug-06 02:58N 26°17' W 079°10'77 8.6
2018-Aug-05 18:00N 25°54' W 077°48'25 0.7 070 / 101019.927.0 31.022.731.0
2018-Aug-04 06:00N 26°06' W 078°12'   060 / 141019.010.8 28.022.429.0
Track history (hours):
 
Tides and Currents Weather Stations Pressure Air Temp Water Temp Dewpoint Dewpoint Depression Visibility Wind Speed Wind Dir Waves Ship Positions

Carnival Victory

Operator: Carnival Cruise Lines

Last reported at 2018-Aug-14 06:00 UTC. Time now 2018-Aug-14 13:47 UTC.
Position N 24°18' W 080°48'.

Type: Passenger vessel. MMSI: 355263000.

Wind from 100 at 15 knots

Barometer 1017.2 mb
Air temperature 28.0 ° C
Visibility: greater than 10.8 NM
Dewpoint 22.4 ° C
Water temperature 30.0 ° C

Date/timePositionNaut miles runAvg speedWind from/ knotsBaromVisibWave heightAir tempDewpointWater temp
2018-Aug-14 06:00N 24°18' W 080°48'3213.3 100 / 151017.210.8 28.022.430.0
2018-Aug-14 03:36N 24°37' W 080°20'4713.6
2018-Aug-14 00:09N 25°14' W 079°49'314.2
2018-Aug-13 23:56N 25°17' W 079°48'614.0
2018-Aug-13 23:30N 25°23' W 079°47'612.5
2018-Aug-13 23:00N 25°29' W 079°46'5 9.5
2018-Aug-13 22:30N 25°34' W 079°46'5 9.6
2018-Aug-13 22:00N 25°38' W 079°49'510.7
2018-Aug-13 21:30N 25°41' W 079°54'510.9
2018-Aug-13 21:00N 25°44' W 079°59'510.7
2018-Aug-13 20:30N 25°47' W 080°04'5 9.8
2018-Aug-13 20:00N 25°46' W 080°10'0 0.3
2018-Aug-13 19:28N 25°46' W 080°10'0 0.0
2018-Aug-13 18:58N 25°46' W 080°10'0 0.0
2018-Aug-13 18:28N 25°46' W 080°10'0 0.0
2018-Aug-13 17:58N 25°46' W 080°10'0 0.0
2018-Aug-13 17:28N 25°46' W 080°10'0 0.0
2018-Aug-13 16:58N 25°46' W 080°10'0 0.0
2018-Aug-13 16:28N 25°46' W 080°10'0 0.0
2018-Aug-13 15:58N 25°46' W 080°10'0 0.0
2018-Aug-13 15:28N 25°46' W 080°10'0 0.0
2018-Aug-13 14:58N 25°46' W 080°10'0 0.0
2018-Aug-13 14:28N 25°46' W 080°10'0 0.0
2018-Aug-13 13:58N 25°46' W 080°10'0 0.0
2018-Aug-13 13:28N 25°46' W 080°10'0 0.0
2018-Aug-13 12:58N 25°46' W 080°10'0 0.0
2018-Aug-13 12:28N 25°46' W 080°10'0 0.0
2018-Aug-13 11:58N 25°46' W 080°10'0 0.0
2018-Aug-13 11:28N 25°46' W 080°10'0 0.0
2018-Aug-13 10:58N 25°46' W 080°10'0 0.0
2018-Aug-13 10:28N 25°46' W 080°10'0 0.0
2018-Aug-13 10:00N 25°46' W 080°10'1 2.4
2018-Aug-13 09:31N 25°47' W 080°11'3 6.5
2018-Aug-13 09:00N 25°46' W 080°08'611.5
2018-Aug-13 08:30N 25°47' W 080°01'612.0
2018-Aug-13 08:00N 25°49' W 079°55'510.5
2018-Aug-13 07:30N 25°53' W 079°51'510.3
2018-Aug-13 07:00N 25°57' W 079°47'4 7.8
2018-Aug-13 06:30N 25°58' W 079°43'4 8.9
2018-Aug-13 06:00N 26°00' W 079°39'5 9.8
2018-Aug-13 05:30N 26°03' W 079°34'4 8.6
2018-Aug-13 05:00N 26°05' W 079°30'5 9.5
2018-Aug-13 04:30N 26°08' W 079°26'5 9.9
2018-Aug-13 04:00N 26°11' W 079°21'510.4
2018-Aug-13 03:30N 26°13' W 079°16'8110.8
2018-Aug-12 20:00N 25°54' W 077°48'25 0.6 170 / 81019.5 5.4 30.023.130.0
2018-Aug-11 06:00N 26°06' W 078°12'4714.3 180 / 121016.910.8 28.022.430.0
2018-Aug-11 02:41N 26°18' W 079°03'313.1
2018-Aug-11 02:27N 26°18' W 079°07'613.3
2018-Aug-11 01:59N 26°15' W 079°13'613.7
2018-Aug-11 01:30N 26°11' W 079°18'713.8
2018-Aug-11 01:00N 26°07' W 079°24'613.0
2018-Aug-11 00:30N 26°03' W 079°30'612.5
2018-Aug-11 00:00N 25°60' W 079°36'612.6
2018-Aug-10 23:30N 25°57' W 079°42'713.1
2018-Aug-10 23:00N 25°54' W 079°49'714.3
2018-Aug-10 22:30N 25°51' W 079°56'714.7
2018-Aug-10 22:00N 25°47' W 080°03'510.4
2018-Aug-10 21:30N 25°46' W 080°09'2 4.5
2018-Aug-10 21:00N 25°47' W 080°11'1 1.3
2018-Aug-10 20:29N 25°47' W 080°10'0 0.0
2018-Aug-10 19:59N 25°47' W 080°10'0 0.0
2018-Aug-10 19:29N 25°47' W 080°10'0 0.0
2018-Aug-10 18:59N 25°47' W 080°10'0 0.0
2018-Aug-10 18:29N 25°47' W 080°10'0 0.0
2018-Aug-10 17:59N 25°47' W 080°10'0 0.0
2018-Aug-10 17:29N 25°47' W 080°10'0 0.0
2018-Aug-10 16:59N 25°47' W 080°10'0 0.0
2018-Aug-10 16:29N 25°47' W 080°10'0 0.0
2018-Aug-10 15:59N 25°47' W 080°10'0 0.0
2018-Aug-10 15:29N 25°47' W 080°10'0 0.0
2018-Aug-10 14:59N 25°47' W 080°10'0 0.0
2018-Aug-10 14:29N 25°47' W 080°10'0 0.0
2018-Aug-10 13:59N 25°47' W 080°10'0 0.0
2018-Aug-10 13:29N 25°47' W 080°10'0 0.0
2018-Aug-10 12:59N 25°47' W 080°10'0 0.0
2018-Aug-10 12:26N 25°47' W 080°10'0 0.0
2018-Aug-10 11:59N 25°47' W 080°10'0 0.0
2018-Aug-10 11:23N 25°47' W 080°10'0 0.0
2018-Aug-10 10:59N 25°47' W 080°10'0 0.1
2018-Aug-10 10:30N 25°47' W 080°10'4 8.0
2018-Aug-10 10:00N 25°46' W 080°06'510.8
2018-Aug-10 09:30N 25°46' W 079°60'815.8
2018-Aug-10 09:00N 25°40' W 079°55'816.5
2018-Aug-10 08:30N 25°31' W 079°55'816.6
2018-Aug-10 08:00N 25°23' W 079°55'42916.5
2018-Aug-09 06:00N 21°18' W 086°18'4617.3 060 / 181016.6 5.4 28.025.330.0
2018-Aug-09 03:22N 20°44' W 086°50'719.2
2018-Aug-09 03:00N 20°38' W 086°55'816.9
2018-Aug-09 02:30N 20°31' W 086°60'3 4.8
2018-Aug-09 01:57N 20°29' W 086°59'0 0.0
2018-Aug-09 01:27N 20°29' W 086°59'0 0.0
2018-Aug-09 01:00N 20°29' W 086°59'0 0.0
2018-Aug-09 00:30N 20°29' W 086°59'0 0.0
2018-Aug-09 00:00N 20°29' W 086°59'0 0.0
2018-Aug-08 23:30N 20°29' W 086°59'0 0.0
2018-Aug-08 22:57N 20°29' W 086°59'0 0.0
2018-Aug-08 22:30N 20°29' W 086°59'0 0.0
2018-Aug-08 21:57N 20°29' W 086°59'0 0.0
2018-Aug-08 21:30N 20°29' W 086°59'0 0.0
2018-Aug-08 21:00N 20°29' W 086°59'0 0.0
2018-Aug-08 20:30N 20°29' W 086°59'0 0.0
2018-Aug-08 20:00N 20°29' W 086°59'0 0.0
2018-Aug-08 19:30N 20°29' W 086°59'0 0.0
2018-Aug-08 19:00N 20°29' W 086°59'0 0.0
2018-Aug-08 18:30N 20°29' W 086°59'0 0.0
2018-Aug-08 17:57N 20°29' W 086°59'0 0.0
2018-Aug-08 17:30N 20°29' W 086°59'0 0.0
2018-Aug-08 17:00N 20°29' W 086°59'0 0.0
2018-Aug-08 16:30N 20°29' W 086°59'0 0.0
2018-Aug-08 16:00N 20°29' W 086°59'0 0.0
2018-Aug-08 15:29N 20°29' W 086°59'3 5.3
2018-Aug-08 15:00N 20°31' W 086°60'510.0
2018-Aug-08 14:30N 20°36' W 086°58'15017.7
2018-Aug-08 06:00N 22°18' W 085°00'20919.0 120 / 221015.9 5.4 28.022.430.0
2018-Aug-07 19:00N 24°18' W 081°54'55 4.2 110 / 211016.910.8 30.024.627.0
2018-Aug-07 06:00N 24°18' W 080°54'3512.7 130 / 251016.210.8 28.022.430.0
2018-Aug-07 03:16N 24°36' W 080°22'513.9
2018-Aug-07 02:56N 24°39' W 080°18'4313.2
2018-Aug-06 23:41N 25°14' W 079°49'213.4
2018-Aug-06 23:30N 25°16' W 079°48'713.3
2018-Aug-06 23:00N 25°22' W 079°47'713.3
2018-Aug-06 22:30N 25°29' W 079°46'713.1
2018-Aug-06 22:00N 25°36' W 079°46'713.9
2018-Aug-06 21:31N 25°40' W 079°52'714.1
2018-Aug-06 21:01N 25°44' W 079°59'612.1
2018-Aug-06 20:30N 25°46' W 080°05'5 9.1
2018-Aug-06 20:00N 25°47' W 080°10'0 0.4
2018-Aug-06 19:30N 25°47' W 080°10'0 0.0
2018-Aug-06 19:00N 25°47' W 080°10'0 0.0
2018-Aug-06 18:30N 25°47' W 080°10'0 0.0
2018-Aug-06 18:00N 25°47' W 080°10'0 0.0
2018-Aug-06 17:30N 25°47' W 080°10'0 0.0
2018-Aug-06 17:00N 25°47' W 080°10'0 0.0
2018-Aug-06 16:30N 25°47' W 080°10'0 0.0
2018-Aug-06 16:00N 25°47' W 080°10'0 0.0
2018-Aug-06 15:30N 25°47' W 080°10'0 0.0
2018-Aug-06 15:00N 25°47' W 080°10'0 0.0
2018-Aug-06 14:30N 25°47' W 080°10'0 0.0
2018-Aug-06 14:00N 25°47' W 080°10'0 0.0
2018-Aug-06 13:30N 25°47' W 080°10'0 0.0
2018-Aug-06 13:00N 25°47' W 080°10'0 0.0
2018-Aug-06 12:30N 25°47' W 080°10'0 0.0
2018-Aug-06 12:00N 25°47' W 080°10'0 0.0
2018-Aug-06 11:30N 25°47' W 080°10'0 0.0
2018-Aug-06 11:00N 25°47' W 080°10'1 1.7
2018-Aug-06 10:30N 25°47' W 080°11'3 6.2
2018-Aug-06 10:00N 25°46' W 080°08'510.8
2018-Aug-06 09:30N 25°47' W 080°02'4 8.3
2018-Aug-06 09:00N 25°49' W 079°58'5 9.9
2018-Aug-06 08:30N 25°52' W 079°53'5 9.4
2018-Aug-06 08:00N 25°54' W 079°49'5 9.2
2018-Aug-06 07:30N 25°57' W 079°45'4 8.1
2018-Aug-06 07:00N 25°59' W 079°41'4 7.2
2018-Aug-06 06:30N 26°01' W 079°38'4 8.1
2018-Aug-06 06:00N 26°04' W 079°35'6467.9
2018-Aug-06 06:00N 26°00' W 079°30'714.5 060 / 161018.9 5.4 28.022.430.0
2018-Aug-06 05:30N 26°07' W 079°31'4 8.2
2018-Aug-06 05:00N 26°09' W 079°27'4 8.7
2018-Aug-06 04:30N 26°11' W 079°23'4 8.6
2018-Aug-06 04:00N 26°12' W 079°18'4 8.9
2018-Aug-06 03:30N 26°14' W 079°14'5 8.6
2018-Aug-06 02:58N 26°17' W 079°10'77 8.6
2018-Aug-05 18:00N 25°54' W 077°48'25 0.7 070 / 101019.927.0 31.022.731.0
2018-Aug-04 06:00N 26°06' W 078°12'   060 / 141019.010.8 28.022.429.0

Dump ship's entire track history